Terminal Aerodrome Forecast
Issued by NWS

Home | Current Version | Previous Version | Text Only | Print | Product List | Glossary On
Versions: 1 2 3 4 5 6 7 8 9 10 11 12 13 14 15 16 17 18 19 20 21
000
FTUS41 KAKQ 290540
TAFPHF
TAF
KPHF 290540Z 2906/3006 04005KT P6SM OVC005
     FM290800 04005KT 4SM BR OVC003
     FM291400 04006KT P6SM OVC005
     FM291800 05006KT P6SM BKN015 OVC040
     FM300100 05003KT P6SM OVC008=

USA.gov is the U.S. government's official web portal to all federal, state and local government web resources and services.